Time;durP1;ratioP1;P1;durP2;ratioP2;P2;SDS_P1;SDS_P2;PMS_P1;PMS_P2;Temp;Humidity;BMP_temperature;BMP_pressure;BME280_temperature;BME280_humidity;BME280_pressure;Samples;Min_cycle;Max_cycle;Signal;HPM_P1;HPM_P2
2022/09/06 00:01:05;;;;;;;;;;;;;;;23.34;48.35;101738.69;5030028;28;5495;-53
2022/09/06 00:03:32;;;;;;;;;;;;;;;23.34;48.49;101747.38;5032949;28;5263;-52
2022/09/06 00:05:58;;;;;;;;;;;;;;;23.34;48.56;101740.81;5033383;28;4239;-50
2022/09/06 00:08:25;;;;;;;;;;;;;;;23.34;48.34;101744.47;5034993;28;4248;-52
2022/09/06 00:10:57;;;;;;;;;;;;;;;23.33;48.66;101740.09;5031791;28;5330;-55
2022/09/06 00:13:26;;;;;;;;;;;;;;;23.34;48.33;101735.81;5035308;28;5319;-51
2022/09/06 00:15:53;;;;;;;;;;;;;;;23.34;48.59;101735.03;5034941;28;4280;-52
2022/09/06 00:18:19;;;;;;;;;;;;;;;23.32;48.55;101743.63;5035373;28;4422;-53
2022/09/06 00:20:46;;;;;;;;;;;;;;;23.31;48.41;101737.09;5032875;28;5254;-51
2022/09/06 00:23:12;;;;;;;;;;;;;;;23.30;48.47;101735.63;5035672;28;4389;-53
2022/09/06 00:25:40;;;;;;;;;;;;;;;23.31;48.49;101737.09;5036644;28;4020;-53
2022/09/06 00:28:06;;;;;;;;;;;;;;;23.31;48.42;101730.56;5034327;28;5076;-53
2022/09/06 00:30:33;;;;;;;;;;;;;;;23.30;48.61;101724.06;5036430;28;4264;-54
2022/09/06 00:32:59;;;;;;;;;;;;;;;23.31;48.57;101731.31;5033173;28;4236;-50
2022/09/06 00:35:25;;;;;;;;;;;;;;;23.30;48.53;101735.63;5034003;28;4252;-51
2022/09/06 00:38:01;;;;;;;;;;;;;;;23.30;48.30;101729.09;5031972;28;4213;-51
2022/09/06 00:40:28;;;;;;;;;;;;;;;23.29;48.31;101722.53;5024013;28;5331;-55
2022/09/06 00:42:57;;;;;;;;;;;;;;;23.29;48.64;101724.69;5023670;28;5269;-50
2022/09/06 00:45:24;;;;;;;;;;;;;;;23.28;48.39;101732.63;5036401;28;5023;-54
2022/09/06 00:47:50;;;;;;;;;;;;;;;23.27;48.38;101736.16;5037899;28;4212;-54
2022/09/06 00:50:16;;;;;;;;;;;;;;;23.27;48.45;101731.13;5051830;28;4405;-54
2022/09/06 00:52:43;;;;;;;;;;;;;;;23.27;48.51;101725.34;5030428;28;4173;-51
2022/09/06 00:55:09;;;;;;;;;;;;;;;23.28;48.22;101726.09;5035828;28;4276;-51
2022/09/06 00:57:36;;;;;;;;;;;;;;;23.27;48.41;101731.13;5048392;28;4277;-51
2022/09/06 01:00:03;;;;;;;;;;;;;;;23.27;48.32;101728.22;5047432;28;6252;-51
2022/09/06 01:02:30;;;;;;;;;;;;;;;23.27;48.13;101724.59;5033511;28;4245;-52
2022/09/06 01:04:56;;;;;;;;;;;;;;;23.26;48.33;101723.84;5034270;28;4449;-53
2022/09/06 01:07:23;;;;;;;;;;;;;;;23.26;48.44;101728.88;5048413;28;4229;-51
2022/09/06 01:10:05;;;;;;;;;;;;;;;23.25;48.14;101736.81;5031640;28;4238;-54
2022/09/06 01:12:46;;;;;;;;;;;;;;;23.24;48.43;101726.66;5027762;28;4253;-54
2022/09/06 01:15:31;;;;;;;;;;;;;;;23.23;48.43;101722.28;5048470;28;4179;-54
2022/09/06 01:18:17;;;;;;;;;;;;;;;23.24;48.41;101726.66;5031325;28;4211;-50
2022/09/06 01:20:50;;;;;;;;;;;;;;;23.24;48.20;101720.88;5024432;28;4184;-54
2022/09/06 01:23:35;;;;;;;;;;;;;;;23.24;48.27;101723.75;5011791;28;4173;-53
2022/09/06 01:26:13;;;;;;;;;;;;;;;23.24;48.13;101717.22;5008901;28;4184;-49
2022/09/06 01:28:40;;;;;;;;;;;;;;;23.22;48.38;101723.66;5012746;28;4245;-51
2022/09/06 01:31:10;;;;;;;;;;;;;;;23.24;48.24;101725.91;5020641;28;4282;-49
2022/09/06 01:33:36;;;;;;;;;;;;;;;23.23;48.41;101719.38;5037312;28;5269;-53
2022/09/06 01:36:04;;;;;;;;;;;;;;;23.23;48.20;101719.38;5009368;28;4366;-51
2022/09/06 01:38:30;;;;;;;;;;;;;;;23.22;48.30;101717.88;5028493;28;5319;-53
2022/09/06 01:40:56;;;;;;;;;;;;;;;23.23;48.23;101722.28;5009988;28;4198;-51
2022/09/06 01:43:24;;;;;;;;;;;;;;;23.21;48.17;101717.13;5013267;28;4253;-49
2022/09/06 01:46:06;;;;;;;;;;;;;;;23.21;48.23;101716.38;5015772;28;4192;-54
2022/09/06 01:48:43;;;;;;;;;;;;;;;23.21;48.40;101717.13;5017665;28;4217;-51
2022/09/06 01:51:23;;;;;;;;;;;;;;;23.20;48.27;101709.88;5029519;28;4201;-48
2022/09/06 01:53:59;;;;;;;;;;;;;;;23.20;48.33;101712.00;5004344;28;4221;-52
2022/09/06 01:56:31;;;;;;;;;;;;;;;23.20;48.30;101714.88;5028530;28;5356;-50
2022/09/06 01:59:00;;;;;;;;;;;;;;;23.19;48.29;101717.03;5018939;28;5240;-52
2022/09/06 02:01:36;;;;;;;;;;;;;;;23.19;48.56;101719.19;5016290;28;4240;-50
2022/09/06 02:04:07;;;;;;;;;;;;;;;23.19;48.46;101725.69;5015406;28;5251;-50
2022/09/06 02:06:36;;;;;;;;;;;;;;;23.19;48.24;101724.97;5046445;28;4319;-53
2022/09/06 02:09:04;;;;;;;;;;;;;;;23.19;48.38;101719.19;5017967;28;4177;-52
2022/09/06 02:11:32;;;;;;;;;;;;;;;23.19;48.16;101719.91;5045689;28;4236;-51
2022/09/06 02:14:03;;;;;;;;;;;;;;;23.18;48.15;101717.66;5015544;28;4169;-52
2022/09/06 02:16:29;;;;;;;;;;;;;;;23.18;48.39;101706.88;5011708;28;4674;-50
2022/09/06 02:18:57;;;;;;;;;;;;;;;23.16;48.50;101703.16;5048551;28;4224;-50
2022/09/06 02:21:25;;;;;;;;;;;;;;;23.19;48.09;101701.84;5047483;28;4255;-49
2022/09/06 02:23:51;;;;;;;;;;;;;;;23.17;48.01;101701.75;5046050;28;4357;-50
2022/09/06 02:26:22;;;;;;;;;;;;;;;23.17;48.08;101704.63;5013850;28;4306;-53
2022/09/06 02:28:48;;;;;;;;;;;;;;;23.16;48.46;101709.66;5025950;28;4023;-50
2022/09/06 02:31:15;;;;;;;;;;;;;;;23.16;48.13;101708.94;5016926;28;4186;-50
2022/09/06 02:33:42;;;;;;;;;;;;;;;23.16;48.05;101708.94;5018208;28;4214;-50
2022/09/06 02:36:09;;;;;;;;;;;;;;;23.16;48.27;101709.66;5046685;28;5474;-55
2022/09/06 02:38:35;;;;;;;;;;;;;;;23.16;48.29;101708.94;5013211;28;4036;-52
2022/09/06 02:41:02;;;;;;;;;;;;;;;23.15;48.38;101711.06;5048205;28;4175;-53
2022/09/06 02:43:28;;;;;;;;;;;;;;;23.15;48.47;101713.94;5028905;28;4222;-50
2022/09/06 02:45:55;;;;;;;;;;;;;;;23.15;48.03;101707.41;5013520;28;5448;-53
2022/09/06 02:48:21;;;;;;;;;;;;;;;23.14;48.16;101700.16;5017989;28;4261;-52
2022/09/06 02:50:47;;;;;;;;;;;;;;;23.14;48.12;101706.69;5014208;28;4232;-52
2022/09/06 02:53:14;;;;;;;;;;;;;;;23.14;48.39;101705.94;5015575;28;5571;-52
2022/09/06 02:55:40;;;;;;;;;;;;;;;23.12;48.14;101702.94;5008797;28;4111;-52
2022/09/06 02:58:08;;;;;;;;;;;;;;;23.12;47.93;101705.84;5014344;28;4418;-53
2022/09/06 03:00:34;;;;;;;;;;;;;;;23.13;48.03;101710.22;5012267;28;4161;-53
2022/09/06 03:03:00;;;;;;;;;;;;;;;23.12;48.20;101720.28;5016594;28;4197;-50
2022/09/06 03:05:27;;;;;;;;;;;;;;;23.12;48.13;101714.50;5015015;28;4272;-52
2022/09/06 03:07:53;;;;;;;;;;;;;;;23.11;47.73;101710.09;5009898;28;5515;-54
2022/09/06 03:10:20;;;;;;;;;;;;;;;23.11;47.97;101713.00;5010518;28;4432;-50
2022/09/06 03:12:46;;;;;;;;;;;;;;;23.10;47.96;101700.69;5014578;28;4276;-53
2022/09/06 03:15:13;;;;;;;;;;;;;;;23.11;47.87;101704.31;5015733;28;4284;-50
2022/09/06 03:17:39;;;;;;;;;;;;;;;23.10;48.01;101702.84;5015421;28;4235;-52
2022/09/06 03:20:06;;;;;;;;;;;;;;;23.11;48.01;101702.22;5013800;28;4117;-52
2022/09/06 03:22:32;;;;;;;;;;;;;;;23.09;47.82;101698.44;5012538;28;4139;-51
2022/09/06 03:24:59;;;;;;;;;;;;;;;23.09;48.03;101698.44;5012616;28;5269;-52
2022/09/06 03:27:25;;;;;;;;;;;;;;;23.09;47.93;101695.56;5009876;28;4181;-54
2022/09/06 03:29:51;;;;;;;;;;;;;;;23.08;47.78;101691.94;5012113;28;4205;-51
2022/09/06 03:32:18;;;;;;;;;;;;;;;23.09;48.16;101686.91;5016178;28;4304;-52
2022/09/06 03:34:44;;;;;;;;;;;;;;;23.09;47.93;101689.78;5016363;28;5384;-50
2022/09/06 03:37:11;;;;;;;;;;;;;;;23.08;48.19;101691.94;5012553;28;4072;-52
2022/09/06 03:39:37;;;;;;;;;;;;;;;23.07;48.26;101696.22;5013963;28;5341;-50
2022/09/06 03:42:03;;;;;;;;;;;;;;;23.08;48.01;101699.84;5012668;28;4245;-52
2022/09/06 03:44:30;;;;;;;;;;;;;;;23.08;47.91;101696.97;5015528;28;4241;-51
2022/09/06 03:46:57;;;;;;;;;;;;;;;23.08;48.02;101696.97;5015250;28;4152;-51
2022/09/06 03:49:23;;;;;;;;;;;;;;;23.07;47.74;101692.59;5013823;28;5350;-50
2022/09/06 03:51:50;;;;;;;;;;;;;;;23.05;47.85;101696.13;5013284;28;5297;-52
2022/09/06 03:54:16;;;;;;;;;;;;;;;23.06;47.74;101699.75;5014719;28;5410;-48
2022/09/06 03:56:42;;;;;;;;;;;;;;;23.04;47.65;101703.28;5012823;28;4186;-53
2022/09/06 03:59:09;;;;;;;;;;;;;;;23.05;47.74;101698.28;5033839;28;5421;-52
2022/09/06 04:01:35;;;;;;;;;;;;;;;23.05;48.00;101692.50;5030296;28;4203;-53
2022/09/06 04:04:02;;;;;;;;;;;;;;;23.05;47.67;101692.50;5033122;28;4277;-49
2022/09/06 04:06:28;;;;;;;;;;;;;;;23.04;47.78;101685.94;5033222;28;4144;-53
2022/09/06 04:08:54;;;;;;;;;;;;;;;23.05;47.62;101687.47;5033844;28;4270;-50
2022/09/06 04:11:21;;;;;;;;;;;;;;;23.04;47.66;101680.16;5032474;28;4153;-51
2022/09/06 04:13:48;;;;;;;;;;;;;;;23.04;47.74;101682.31;5034036;28;5528;-52
2022/09/06 04:16:16;;;;;;;;;;;;;;;23.03;47.75;101681.59;5030008;28;4171;-52
2022/09/06 04:18:42;;;;;;;;;;;;;;;23.07;48.02;101686.81;5034567;28;5437;-55
2022/09/06 04:21:09;;;;;;;;;;;;;;;23.05;48.15;101680.94;5031669;28;5294;-56
2022/09/06 04:23:35;;;;;;;;;;;;;;;23.05;47.73;101681.69;5032563;28;4177;-56
2022/09/06 04:26:05;;;;;;;;;;;;;;;23.05;47.69;101675.91;5034374;28;4164;-54
2022/09/06 04:28:31;;;;;;;;;;;;;;;23.05;47.95;101669.38;5034395;28;4343;-57
2022/09/06 04:30:58;;;;;;;;;;;;;;;23.04;48.15;101662.09;5027314;28;4346;-52
2022/09/06 04:33:30;;;;;;;;;;;;;;;23.04;47.95;101657.06;5023754;28;4258;-55
2022/09/06 04:35:57;;;;;;;;;;;;;;;23.03;47.92;101660.63;5025207;28;5337;-56
2022/09/06 04:38:23;;;;;;;;;;;;;;;23.03;47.92;101655.59;5033671;28;5555;-53
2022/09/06 04:40:50;;;;;;;;;;;;;;;23.03;47.79;101664.25;5029566;28;5356;-55
2022/09/06 04:43:16;;;;;;;;;;;;;;;23.03;47.91;101667.13;5027834;28;4083;-55
2022/09/06 04:45:42;;;;;;;;;;;;;;;23.02;48.04;101659.13;5030509;28;4167;-56
2022/09/06 04:48:09;;;;;;;;;;;;;;;23.01;47.78;101658.38;5043402;28;5256;-56
2022/09/06 04:50:35;;;;;;;;;;;;;;;23.01;48.07;101658.38;5029688;28;4308;-55
2022/09/06 04:53:04;;;;;;;;;;;;;;;23.00;48.08;101657.63;5021302;28;4226;-57
2022/09/06 04:55:32;;;;;;;;;;;;;;;23.05;47.72;101654.94;5024921;28;4176;-56
2022/09/06 04:58:02;;;;;;;;;;;;;;;23.08;47.53;101657.25;5026162;28;4225;-56
2022/09/06 05:00:29;;;;;;;;;;;;;;;23.07;48.13;101655.03;5023112;28;4163;-65
2022/09/06 05:02:55;;;;;;;;;;;;;;;23.05;48.08;101649.16;5026934;28;4053;-65
2022/09/06 05:05:21;;;;;;;;;;;;;;;23.05;47.35;101641.25;5031419;28;4246;-73
2022/09/06 05:07:54;;;;;;;;;;;;;;;23.06;46.87;101644.88;5035755;28;4337;-72
2022/09/06 05:10:21;;;;;;;;;;;;;;;23.07;47.48;101638.44;5038914;28;5465;-65
2022/09/06 05:12:48;;;;;;;;;;;;;;;23.09;47.41;101650.09;5028599;28;4146;-66
2022/09/06 05:15:15;;;;;;;;;;;;;;;23.07;47.68;101638.44;5031824;28;4342;-66
2022/09/06 05:17:42;;;;;;;;;;;;;;;23.06;47.21;101648.50;5035978;28;4197;-67
2022/09/06 05:20:09;;;;;;;;;;;;;;;23.07;46.99;101637.72;5035973;28;4001;-67
2022/09/06 05:22:35;;;;;;;;;;;;;;;23.06;47.23;101641.97;5033313;28;4463;-66
2022/09/06 05:25:01;;;;;;;;;;;;;;;23.05;47.25;101647.03;5038078;28;4272;-66
2022/09/06 05:27:28;;;;;;;;;;;;;;;23.06;47.41;101654.28;5038443;28;4232;-66
2022/09/06 05:29:54;;;;;;;;;;;;;;;23.07;47.56;101655.03;5038694;28;4240;-66
2022/09/06 05:32:20;;;;;;;;;;;;;;;23.02;47.53;101654.09;5041446;28;4235;-67
2022/09/06 05:34:47;;;;;;;;;;;;;;;23.03;47.12;101657.72;5036248;28;4227;-66
2022/09/06 05:37:13;;;;;;;;;;;;;;;23.05;47.40;101654.94;5038131;28;4176;-66
2022/09/06 05:39:40;;;;;;;;;;;;;;;22.98;47.69;101660.38;5036175;28;4229;-67
2022/09/06 05:42:06;;;;;;;;;;;;;;;23.00;47.47;101663.41;5039110;28;4178;-67
2022/09/06 05:44:33;;;;;;;;;;;;;;;23.04;47.79;101662.84;5035520;28;4254;-68
2022/09/06 05:47:00;;;;;;;;;;;;;;;23.05;47.78;101670.13;5033159;28;4144;-75
2022/09/06 05:49:29;;;;;;;;;;;;;;;23.29;50.40;101658.97;5028954;28;5312;-72
2022/09/06 05:51:55;;;;;;;;;;;;;;;23.23;48.27;101657.94;5030076;28;5222;-71
2022/09/06 05:54:22;;;;;;;;;;;;;;;23.51;48.97;101661.41;5044246;28;4182;-82
2022/09/06 05:56:48;;;;;;;;;;;;;;;23.81;48.11;101645.47;5043633;28;5327;-74
2022/09/06 05:59:14;;;;;;;;;;;;;;;23.98;47.50;101649.06;5040614;28;5319;-73
2022/09/06 06:01:48;;;;;;;;;;;;;;;23.87;47.14;101638.47;5039058;28;4200;-80
2022/09/06 06:04:14;;;;;;;;;;;;;;;24.05;45.60;101630.56;5047927;28;5257;-82
2022/09/06 06:06:40;;;;;;;;;;;;;;;24.02;45.59;101621.06;5052959;28;4038;-81
2022/09/06 06:09:07;;;;;;;;;;;;;;;23.96;45.70;101623.72;5050329;28;5183;-80
2022/09/06 06:11:33;;;;;;;;;;;;;;;24.02;45.62;101626.13;5045412;28;5306;-81
2022/09/06 06:14:00;;;;;;;;;;;;;;;24.05;45.65;101636.38;5048121;28;4284;-82
2022/09/06 06:16:27;;;;;;;;;;;;;;;24.03;45.40;101633.41;5051142;28;4144;-83
2022/09/06 06:18:54;;;;;;;;;;;;;;;24.12;45.03;101641.03;5052331;28;4206;-80
2022/09/06 06:21:30;;;;;;;;;;;;;;;24.22;44.38;101637.81;5046358;28;5341;-81
2022/09/06 06:23:57;;;;;;;;;;;;;;;24.24;43.38;101640.81;5052856;28;4208;-81
2022/09/06 06:26:23;;;;;;;;;;;;;;;24.20;44.00;101647.16;5049855;28;4207;-82
2022/09/06 06:28:50;;;;;;;;;;;;;;;23.89;45.14;101655.91;5041767;28;4927;-73
2022/09/06 06:31:18;;;;;;;;;;;;;;;23.88;45.27;101654.44;5042609;28;5427;-74
2022/09/06 06:33:45;;;;;;;;;;;;;;;24.04;43.88;101649.34;5041510;28;5489;-74
2022/09/06 06:36:12;;;;;;;;;;;;;;;23.79;44.26;101648.28;5040481;28;4198;-77
2022/09/06 06:38:38;;;;;;;;;;;;;;;24.08;43.24;101651.69;5048798;28;4105;-80
2022/09/06 06:41:05;;;;;;;;;;;;;;;24.09;42.94;101642.34;5044846;28;4193;-73
2022/09/06 06:43:36;;;;;;;;;;;;;;;24.07;42.96;101641.50;5039580;28;4069;-72
2022/09/06 06:46:07;;;;;;;;;;;;;;;23.92;43.01;101640.16;5042976;28;4166;-71
2022/09/06 06:48:33;;;;;;;;;;;;;;;23.54;43.75;101631.19;5040305;28;4087;-73
2022/09/06 06:51:00;;;;;;;;;;;;;;;23.51;43.14;101626.72;5042982;28;4498;-70
2022/09/06 06:53:26;;;;;;;;;;;;;;;23.76;42.60;101622.81;5039645;28;4165;-70
2022/09/06 06:55:53;;;;;;;;;;;;;;;23.91;42.76;101621.28;5043408;28;4199;-70
2022/09/06 06:58:19;;;;;;;;;;;;;;;23.91;42.71;101621.28;5040763;28;4550;-67
2022/09/06 07:00:46;;;;;;;;;;;;;;;23.95;43.11;101615.69;5035927;28;5292;-67
2022/09/06 07:03:12;;;;;;;;;;;;;;;23.93;43.35;101627.16;5037023;28;5516;-69
2022/09/06 07:05:39;;;;;;;;;;;;;;;23.89;43.48;101635.66;5039673;28;4200;-69
2022/09/06 07:08:25;;;;;;;;;;;;;;;23.14;41.85;101625.78;5039955;28;4165;-69
2022/09/06 07:10:52;;;;;;;;;;;;;;;22.99;40.78;101627.25;5039743;28;4009;-68
2022/09/06 07:13:18;;;;;;;;;;;;;;;23.04;39.93;101624.53;5034221;28;4040;-74
2022/09/06 07:15:44;;;;;;;;;;;;;;;22.71;40.52;101625.84;5033043;28;4271;-73
2022/09/06 07:18:11;;;;;;;;;;;;;;;22.78;40.28;101624.75;5032474;28;5415;-73
2022/09/06 07:20:37;;;;;;;;;;;;;;;22.75;40.20;101631.84;5021420;28;4225;-73
2022/09/06 07:23:24;;;;;;;;;;;;;;;22.68;40.22;101630.03;5039845;28;4085;-72
2022/09/06 07:26:14;;;;;;;;;;;;;;;22.63;40.28;101643.53;5034806;28;4175;-75
2022/09/06 07:28:40;;;;;;;;;;;;;;;22.46;40.86;101630.41;5026898;28;4150;-74
2022/09/06 07:31:07;;;;;;;;;;;;;;;22.51;40.51;101635.00;5030623;28;5333;-76
2022/09/06 07:33:53;;;;;;;;;;;;;;;22.58;40.53;101636.78;5026088;28;4350;-77
2022/09/06 07:36:21;;;;;;;;;;;;;;;22.86;40.34;101630.94;5027696;28;4068;-72
2022/09/06 07:38:48;;;;;;;;;;;;;;;23.01;40.69;101626.59;5034356;28;4182;-71
2022/09/06 07:41:16;;;;;;;;;;;;;;;23.06;40.51;101613.84;5037871;28;4111;-72
2022/09/06 07:43:42;;;;;;;;;;;;;;;23.07;41.20;101611.72;5035241;28;4192;-68
2022/09/06 07:46:09;;;;;;;;;;;;;;;23.10;41.26;101616.19;5026755;28;4492;-72
2022/09/06 07:48:36;;;;;;;;;;;;;;;23.12;41.58;101607.59;5026141;28;4247;-71
2022/09/06 07:51:03;;;;;;;;;;;;;;;23.16;41.39;101604.91;5031753;28;4218;-68
2022/09/06 07:53:30;;;;;;;;;;;;;;;23.15;41.58;101612.81;5028092;28;4214;-71
2022/09/06 07:55:57;;;;;;;;;;;;;;;23.13;42.35;101611.97;5005630;28;4210;-70
2022/09/06 07:58:24;;;;;;;;;;;;;;;23.05;42.77;101623.16;5008505;28;4263;-71
2022/09/06 08:00:50;;;;;;;;;;;;;;;23.06;42.65;101610.94;5008981;28;4267;-68
2022/09/06 08:03:16;;;;;;;;;;;;;;;23.09;42.67;101612.56;5008137;28;4233;-68
2022/09/06 08:05:43;;;;;;;;;;;;;;;23.13;43.00;101611.97;5018822;28;4352;-68
2022/09/06 08:08:29;;;;;;;;;;;;;;;23.13;43.11;101624.28;5032432;28;4193;-67
2022/09/06 08:11:16;;;;;;;;;;;;;;;23.14;42.89;101637.34;5036537;28;4212;-70
2022/09/06 08:13:42;;;;;;;;;;;;;;;23.15;43.27;101626.53;5036352;28;4297;-69
2022/09/06 08:16:10;;;;;;;;;;;;;;;23.13;43.30;101635.84;5031286;28;4285;-73
2022/09/06 08:18:42;;;;;;;;;;;;;;;23.12;43.66;101640.13;5049419;28;4279;-70
2022/09/06 08:21:12;;;;;;;;;;;;;;;23.14;44.29;101636.59;5034821;28;4187;-73
2022/09/06 08:23:41;;;;;;;;;;;;;;;23.15;43.98;101638.81;5038375;28;5278;-72
2022/09/06 08:26:08;;;;;;;;;;;;;;;23.15;43.98;101635.19;5032110;28;4164;-71
2022/09/06 08:28:34;;;;;;;;;;;;;;;23.12;44.31;101637.25;5036598;28;5623;-69
2022/09/06 08:31:04;;;;;;;;;;;;;;;23.14;44.43;101633.72;5037446;28;5476;-65
2022/09/06 08:33:31;;;;;;;;;;;;;;;23.22;44.63;101636.97;5030751;28;4160;-69
2022/09/06 08:35:57;;;;;;;;;;;;;;;23.35;44.98;101633.25;5034590;28;4192;-65
2022/09/06 08:38:23;;;;;;;;;;;;;;;23.47;44.82;101633.06;5030145;28;4073;-66
2022/09/06 08:40:50;;;;;;;;;;;;;;;23.46;44.59;101622.16;5039086;28;5339;-71
2022/09/06 08:43:18;;;;;;;;;;;;;;;23.35;44.78;101623.84;5036684;28;4328;-71
2022/09/06 08:45:46;;;;;;;;;;;;;;;23.39;44.69;101604.53;5038980;28;4207;-73
2022/09/06 08:48:12;;;;;;;;;;;;;;;23.42;44.50;101609.00;5039536;28;4064;-70
2022/09/06 08:50:39;;;;;;;;;;;;;;;23.37;44.66;101607.34;5036250;28;5468;-71
2022/09/06 08:53:09;;;;;;;;;;;;;;;23.41;44.54;101610.41;5037816;28;4249;-72
2022/09/06 08:55:52;;;;;;;;;;;;;;;23.52;44.61;101610.88;5029972;28;4212;-74
2022/09/06 08:58:25;;;;;;;;;;;;;;;23.73;44.56;101606.72;5042736;28;4213;-73
2022/09/06 09:00:57;;;;;;;;;;;;;;;23.72;44.53;101611.78;5030844;28;4427;-76
2022/09/06 09:03:24;;;;;;;;;;;;;;;23.72;44.47;101606.00;5032494;28;4167;-70
2022/09/06 09:05:51;;;;;;;;;;;;;;;23.46;44.52;101599.03;5035345;28;5365;-73
2022/09/06 09:08:22;;;;;;;;;;;;;;;23.34;44.59;101607.88;5033691;28;4229;-73
2022/09/06 09:10:57;;;;;;;;;;;;;;;23.34;44.72;101602.88;5030381;28;4251;-73
2022/09/06 09:13:32;;;;;;;;;;;;;;;23.33;45.02;101604.25;5031150;28;5398;-73
2022/09/06 09:15:59;;;;;;;;;;;;;;;23.33;45.05;101595.59;5034104;28;4193;-73
2022/09/06 09:18:29;;;;;;;;;;;;;;;23.33;45.17;101589.81;5033461;28;4243;-74
2022/09/06 09:20:56;;;;;;;;;;;;;;;23.46;45.45;101587.47;5014900;28;4278;-70
2022/09/06 09:23:22;;;;;;;;;;;;;;;23.72;45.37;101582.84;5032238;28;4322;-75
2022/09/06 09:25:51;;;;;;;;;;;;;;;23.82;44.96;101574.66;5037986;28;4162;-72
2022/09/06 09:28:18;;;;;;;;;;;;;;;23.83;44.51;101569.63;5039144;28;4649;-71
2022/09/06 09:30:49;;;;;;;;;;;;;;;23.83;44.74;101576.16;5032137;28;4207;-70
2022/09/06 09:33:19;;;;;;;;;;;;;;;23.90;44.24;101585.84;5035673;28;4044;-65
2022/09/06 09:35:46;;;;;;;;;;;;;;;23.94;44.18;101579.50;5033598;28;4529;-64
2022/09/06 09:38:12;;;;;;;;;;;;;;;23.94;44.13;101573.72;5035770;28;4069;-65
2022/09/06 09:40:49;;;;;;;;;;;;;;;23.91;44.39;101572.13;5051772;28;4374;-64
2022/09/06 09:43:26;;;;;;;;;;;;;;;22.94;44.08;101567.75;5036567;28;4076;-65
2022/09/06 09:45:56;;;;;;;;;;;;;;;22.55;44.37;101568.06;5036569;28;4519;-64
2022/09/06 09:48:25;;;;;;;;;;;;;;;22.55;44.70;101562.31;5042235;28;4292;-65
2022/09/06 09:50:52;;;;;;;;;;;;;;;21.81;45.28;101557.88;5030519;28;4162;-66
2022/09/06 09:53:20;;;;;;;;;;;;;;;21.74;45.57;101548.16;5031439;28;4226;-61
2022/09/06 09:55:47;;;;;;;;;;;;;;;22.52;44.43;101558.56;5031032;28;5318;-61
2022/09/06 09:58:40;;;;;;;;;;;;;;;22.75;44.03;101556.75;5031408;28;4300;-60
2022/09/06 10:01:20;;;;;;;;;;;;;;;22.78;43.83;101555.44;5032901;28;4207;-58
2022/09/06 10:03:46;;;;;;;;;;;;;;;22.97;44.03;101549.13;5055318;28;4258;-60
2022/09/06 10:06:33;;;;;;;;;;;;;;;22.92;43.46;101553.22;5036102;28;4558;-58
2022/09/06 10:09:20;;;;;;;;;;;;;;;22.92;43.44;101544.56;5044353;28;4527;-57
2022/09/06 10:11:48;;;;;;;;;;;;;;;23.02;43.29;101543.56;5040570;28;4215;-53
2022/09/06 10:14:24;;;;;;;;;;;;;;;22.83;43.51;101542.69;5037292;28;5086;-60
2022/09/06 10:16:51;;;;;;;;;;;;;;;23.04;43.47;101537.88;5038970;28;5323;-62
2022/09/06 10:19:40;;;;;;;;;;;;;;;23.24;43.22;101541.72;5037514;28;4306;-62
2022/09/06 10:22:12;;;;;;;;;;;;;;;23.26;43.08;101529.50;5026549;28;4263;-69
2022/09/06 10:24:49;;;;;;;;;;;;;;;22.97;43.20;101528.91;5036499;28;4218;-63
2022/09/06 10:27:16;;;;;;;;;;;;;;;23.35;43.56;101535.00;5052709;28;5311;-70
2022/09/06 10:29:51;;;;;;;;;;;;;;;23.55;42.98;101529.38;5039212;28;5474;-70
2022/09/06 10:32:27;;;;;;;;;;;;;;;23.56;42.96;101525.06;5040570;28;4225;-67
2022/09/06 10:34:59;;;;;;;;;;;;;;;23.55;42.97;101534.41;5038135;28;4226;-66
2022/09/06 10:37:44;;;;;;;;;;;;;;;23.69;42.60;101526.34;5037685;28;4418;-71
2022/09/06 10:40:10;;;;;;;;;;;;;;;24.17;42.08;101518.25;5036594;28;4235;-66
2022/09/06 10:42:53;;;;;;;;;;;;;;;23.82;42.87;101524.72;5030254;28;4251;-68
2022/09/06 10:45:25;;;;;;;;;;;;;;;24.13;41.89;101526.78;5047917;28;4223;-69
2022/09/06 10:47:51;;;;;;;;;;;;;;;24.39;41.68;101511.88;5040624;28;5479;-72
2022/09/06 10:50:19;;;;;;;;;;;;;;;24.43;41.88;101512.78;5042191;28;4423;-67
2022/09/06 10:52:45;;;;;;;;;;;;;;;24.43;42.44;101501.19;5041447;28;5315;-65
2022/09/06 10:55:13;;;;;;;;;;;;;;;24.41;42.02;101514.84;5038973;28;5339;-68
2022/09/06 10:57:41;;;;;;;;;;;;;;;24.42;41.87;101504.78;5055874;28;4390;-68
2022/09/06 11:00:27;;;;;;;;;;;;;;;24.45;41.81;101497.66;5034241;28;5593;-65
2022/09/06 11:02:55;;;;;;;;;;;;;;;24.57;41.66;101506.84;5038137;28;4255;-73
2022/09/06 11:05:51;;;;;;;;;;;;;;;24.53;41.51;101498.00;5039740;28;4275;-72
2022/09/06 11:08:21;;;;;;;;;;;;;;;24.63;41.46;101500.56;5040252;28;4655;-62
2022/09/06 11:11:10;;;;;;;;;;;;;;;24.52;41.75;101496.50;5020031;28;4529;-68
2022/09/06 11:13:36;;;;;;;;;;;;;;;24.53;41.70;101500.16;5044064;28;4349;-74
2022/09/06 11:16:29;;;;;;;;;;;;;;;24.51;41.70;101500.81;5035060;28;5285;-73
2022/09/06 11:19:00;;;;;;;;;;;;;;;24.40;41.79;101496.00;5027710;28;5497;-73
2022/09/06 11:21:46;;;;;;;;;;;;;;;24.21;41.65;101503.97;5054161;28;3993;-73
2022/09/06 11:24:15;;;;;;;;;;;;;;;24.04;42.25;101490.22;5037099;28;5132;-72
2022/09/06 11:26:42;;;;;;;;;;;;;;;23.91;42.65;101494.00;5041552;28;4213;-71
2022/09/06 11:29:16;;;;;;;;;;;;;;;23.92;42.73;101492.63;5037343;28;4309;-71
2022/09/06 11:31:48;;;;;;;;;;;;;;;23.88;42.58;101483.78;5042412;28;5502;-68
2022/09/06 11:34:34;;;;;;;;;;;;;;;23.96;42.37;101492.78;5034185;28;4569;-64
2022/09/06 11:37:01;;;;;;;;;;;;;;;24.02;42.33;101490.88;5007792;28;5293;-66
2022/09/06 11:39:29;;;;;;;;;;;;;;;23.83;42.32;101483.59;5051078;28;4136;-66
2022/09/06 11:42:35;;;;;;;;;;;;;;;23.86;42.52;101478.63;5042464;28;4153;-67
2022/09/06 11:45:01;;;;;;;;;;;;;;;23.94;42.63;101481.16;5039697;28;5219;-67
2022/09/06 11:47:34;;;;;;;;;;;;;;;23.85;42.26;101485.84;5037398;28;4276;-67
2022/09/06 11:50:19;;;;;;;;;;;;;;;23.93;42.45;101476.75;5032544;28;4159;-66
2022/09/06 11:52:55;;;;;;;;;;;;;;;23.89;42.57;101485.25;5037435;28;5338;-65
2022/09/06 11:55:23;;;;;;;;;;;;;;;23.82;42.57;101482.13;5036670;28;5296;-65
2022/09/06 11:57:53;;;;;;;;;;;;;;;23.95;42.78;101485.50;5046520;28;5330;-70
2022/09/06 12:00:22;;;;;;;;;;;;;;;23.94;42.39;101481.16;5009938;28;4241;-71
2022/09/06 12:02:49;;;;;;;;;;;;;;;23.87;42.83;101476.47;5020679;28;5239;-69
2022/09/06 12:05:16;;;;;;;;;;;;;;;23.87;42.38;101482.28;5018242;28;4242;-70
2022/09/06 12:08:01;;;;;;;;;;;;;;;23.96;42.20;101470.41;5017584;28;4226;-73
2022/09/06 12:10:28;;;;;;;;;;;;;;;23.97;42.33;101468.97;5036300;28;4318;-73
2022/09/06 12:12:54;;;;;;;;;;;;;;;24.02;42.56;101459.06;5034534;28;5007;-75
2022/09/06 12:15:27;;;;;;;;;;;;;;;23.88;42.50;101460.63;5033711;28;5283;-77
2022/09/06 12:17:54;;;;;;;;;;;;;;;23.78;42.63;101461.69;5013429;28;4140;-76
2022/09/06 12:20:39;;;;;;;;;;;;;;;23.85;42.68;101464.84;5017655;28;5428;-75
2022/09/06 12:23:05;;;;;;;;;;;;;;;23.82;42.67;101455.31;5037667;28;4209;-77
2022/09/06 12:25:35;;;;;;;;;;;;;;;24.10;42.66;101455.75;5039652;28;4160;-68
2022/09/06 12:28:01;;;;;;;;;;;;;;;23.88;42.69;101454.84;5032424;28;4285;-67
2022/09/06 12:30:29;;;;;;;;;;;;;;;23.91;42.66;101447.72;5036598;28;5321;-68
2022/09/06 12:32:55;;;;;;;;;;;;;;;23.94;42.49;101449.31;5031277;28;5293;-66
2022/09/06 12:35:23;;;;;;;;;;;;;;;24.13;42.36;101445.75;5038665;28;4230;-65
2022/09/06 12:38:13;;;;;;;;;;;;;;;23.96;43.02;101446.50;5036564;28;4174;-66
2022/09/06 12:40:40;;;;;;;;;;;;;;;24.17;42.38;101439.41;5036097;28;5314;-69
2022/09/06 12:43:07;;;;;;;;;;;;;;;24.23;42.49;101448.31;5036074;28;4208;-66
2022/09/06 12:45:33;;;;;;;;;;;;;;;24.08;42.88;101435.44;5035250;28;3990;-65
2022/09/06 12:48:07;;;;;;;;;;;;;;;24.18;42.52;101435.81;5040543;28;4253;-66
2022/09/06 12:50:33;;;;;;;;;;;;;;;24.22;42.54;101423.66;5031856;28;5293;-66
2022/09/06 12:53:00;;;;;;;;;;;;;;;24.08;43.31;101431.78;5031572;28;4354;-66
2022/09/06 12:55:31;;;;;;;;;;;;;;;24.12;42.83;101424.03;5033623;28;5129;-71
2022/09/06 12:58:04;;;;;;;;;;;;;;;24.15;43.04;101428.47;5024624;28;4317;-71
2022/09/06 13:00:33;;;;;;;;;;;;;;;24.20;42.96;101427.22;5033542;28;4226;-74